New Enterprise, Pennsylvania
Current Conditions -  °F | °C
As of 3:53 PM on Friday 28 Nov 2014 (Local Time) from KAOO Reporting Station
Few Clouds Few Clouds  
Wind Chill: 16°   Ceiling: Unl
Heat Index: 25°   Visibility: 10mi
Dew Point: 13°   Wind: 9mph
Humidity: 60%   Direction: 260°W
Pressure: 30.2"   Gusts: NA
Location:  40.17°N, 78.41°W
Report Text: KAOO 282053Z AUTO 26008KT 10SM FEW038 M04/M11 A3020 RMK AO2 SLP248 T10391106 55007
Loading
Personal Weather Stations






























Interactive Weather Map New forecast layout! Learn more

10-Day Weather Forecast

Advertisements
Track Severe Weather on mobile